This is the latest recevied weather packets stored in our database for station/object K7MT-WX. If no packets are shown the sender has not sent any weather packets the latest 10 day(s).
| Time | Temp. | Humidity | Pressure | Rain* | Wind** | Luminosity | Snow |
|---|---|---|---|---|---|---|---|
| 1788057149 | 17.22° C | 73% | 1010.8 hPa | 0 mm | - | - | - |
| 1788056261 | 17.78° C | 71% | 1010.6 hPa | 0 mm | - | - | - |
| 1788055350 | 18.33° C | 68% | 1010.6 hPa | 0.25 mm | - | - | - |
| 1788054450 | 18.89° C | 68% | 1010.5 hPa | 0.25 mm | - | - | - |
| 1788053549 | 18.89° C | 71% | 1010.4 hPa | 0.25 mm | - | - | - |
| 1788052619 | 18.89° C | 73% | 1010.3 hPa | 0.25 mm | - | - | - |
| 1788051719 | 19.44° C | 68% | 1010.6 hPa | 0 mm | - | - | - |
| 1788050819 | 20° C | 67% | 1010.3 hPa | 0 mm | - | - | - |
| 1788049919 | 20° C | 63% | 1010 hPa | 0 mm | - | - | - |
| 1788049019 | 21.11° C | 62% | 1009.8 hPa | 0 mm | - | - | - |
| 1788048119 | 20.56° C | 61% | 1009.9 hPa | 0.51 mm | - | - | - |
| 1788047219 | 20° C | 65% | 1009.5 hPa | 1.27 mm | - | - | - |
| 1788046319 | 19.44° C | 70% | 1009.5 hPa | 1.52 mm | - | - | - |
| 1788045419 | 18.89° C | 74% | 1009.8 hPa | 1.52 mm | - | - | - |
| 1788044519 | 18.89° C | 68% | 1010.9 hPa | 1.02 mm | - | - | - |
| 1788043619 | 19.44° C | 60% | 1009.9 hPa | 0.25 mm | - | - | - |
| 1788042719 | 21.11° C | 58% | 1009.5 hPa | 0 mm | - | - | - |
| 1788041819 | 22.22° C | 44% | 1009.7 hPa | 0 mm | - | - | - |
| 1788040919 | 23.89° C | 41% | 1009.7 hPa | 0 mm | - | - | - |
| 1788040019 | 23.33° C | 43% | 1009.9 hPa | 0 mm | - | - | - |
| 1788039119 | 23.89° C | 42% | 1009.6 hPa | 0 mm | - | - | - |
| 1788038219 | 24.44° C | 39% | 1009.4 hPa | 0 mm | - | - | - |
| 1788037319 | 24.44° C | 39% | 1009 hPa | 0 mm | - | - | - |
| 1788036419 | 21.67° C | 45% | 1009 hPa | 0 mm | - | - | - |
| 1788035519 | 22.78° C | 39% | 1009.8 hPa | 0 mm | - | - | - |
* Rain latest hour (hover to see other rain measurements)
** Current wind speed in m/s (hover to see current wind gust speed)